sensor_id;sensor_type;location;lat;lon;timestamp;P1;durP1;ratioP1;P2;durP2;ratioP2
28934;SDS011;16044;52.726;-2.108;2023-06-10T00:01:01;27.05;;;13.60;;
28934;SDS011;16044;52.726;-2.108;2023-06-10T00:03:32;22.98;;;12.93;;
28934;SDS011;16044;52.726;-2.108;2023-06-10T00:06:06;30.45;;;13.85;;
28934;SDS011;16044;52.726;-2.108;2023-06-10T00:08:37;31.17;;;14.38;;
28934;SDS011;16044;52.726;-2.108;2023-06-10T00:11:08;30.17;;;15.27;;
28934;SDS011;16044;52.726;-2.108;2023-06-10T00:13:39;28.08;;;15.88;;
28934;SDS011;16044;52.726;-2.108;2023-06-10T00:16:10;31.38;;;16.50;;
28934;SDS011;16044;52.726;-2.108;2023-06-10T00:18:41;35.20;;;18.02;;
28934;SDS011;16044;52.726;-2.108;2023-06-10T00:21:14;31.95;;;17.92;;
28934;SDS011;16044;52.726;-2.108;2023-06-10T00:23:45;35.67;;;18.80;;
28934;SDS011;16044;52.726;-2.108;2023-06-10T00:26:17;29.23;;;17.52;;
28934;SDS011;16044;52.726;-2.108;2023-06-10T00:28:48;31.70;;;17.20;;
28934;SDS011;16044;52.726;-2.108;2023-06-10T00:31:19;29.00;;;18.42;;
28934;SDS011;16044;52.726;-2.108;2023-06-10T00:33:50;42.28;;;19.77;;
28934;SDS011;16044;52.726;-2.108;2023-06-10T00:36:23;38.67;;;18.55;;
28934;SDS011;16044;52.726;-2.108;2023-06-10T00:38:54;38.50;;;20.98;;
28934;SDS011;16044;52.726;-2.108;2023-06-10T00:41:25;34.35;;;19.92;;
28934;SDS011;16044;52.726;-2.108;2023-06-10T00:43:56;37.40;;;22.27;;
28934;SDS011;16044;52.726;-2.108;2023-06-10T00:46:27;33.42;;;20.17;;
28934;SDS011;16044;52.726;-2.108;2023-06-10T00:48:59;35.60;;;21.15;;
28934;SDS011;16044;52.726;-2.108;2023-06-10T00:51:32;38.72;;;21.52;;
28934;SDS011;16044;52.726;-2.108;2023-06-10T00:54:04;39.00;;;22.17;;
28934;SDS011;16044;52.726;-2.108;2023-06-10T00:56:35;38.70;;;22.35;;
28934;SDS011;16044;52.726;-2.108;2023-06-10T00:59:06;43.58;;;23.42;;
28934;SDS011;16044;52.726;-2.108;2023-06-10T01:01:37;37.05;;;21.08;;
28934;SDS011;16044;52.726;-2.108;2023-06-10T01:04:08;41.30;;;21.55;;
28934;SDS011;16044;52.726;-2.108;2023-06-10T01:06:45;45.10;;;22.63;;
28934;SDS011;16044;52.726;-2.108;2023-06-10T01:09:25;39.45;;;22.42;;
28934;SDS011;16044;52.726;-2.108;2023-06-10T01:12:08;43.42;;;23.77;;
28934;SDS011;16044;52.726;-2.108;2023-06-10T01:14:46;42.30;;;21.80;;
28934;SDS011;16044;52.726;-2.108;2023-06-10T01:17:18;39.53;;;22.52;;
28934;SDS011;16044;52.726;-2.108;2023-06-10T01:19:53;40.72;;;24.23;;
28934;SDS011;16044;52.726;-2.108;2023-06-10T01:22:28;36.70;;;23.13;;
28934;SDS011;16044;52.726;-2.108;2023-06-10T01:24:59;39.40;;;22.83;;
28934;SDS011;16044;52.726;-2.108;2023-06-10T01:27:30;38.92;;;23.38;;
28934;SDS011;16044;52.726;-2.108;2023-06-10T01:30:11;43.03;;;25.60;;
28934;SDS011;16044;52.726;-2.108;2023-06-10T01:32:50;44.67;;;24.17;;
28934;SDS011;16044;52.726;-2.108;2023-06-10T01:35:22;38.78;;;22.92;;
28934;SDS011;16044;52.726;-2.108;2023-06-10T01:37:58;44.35;;;24.17;;
28934;SDS011;16044;52.726;-2.108;2023-06-10T01:43:02;47.15;;;25.17;;
28934;SDS011;16044;52.726;-2.108;2023-06-10T01:45:33;42.05;;;25.20;;
28934;SDS011;16044;52.726;-2.108;2023-06-10T01:48:04;40.10;;;22.13;;
28934;SDS011;16044;52.726;-2.108;2023-06-10T01:50:35;38.97;;;21.73;;
28934;SDS011;16044;52.726;-2.108;2023-06-10T01:53:09;35.58;;;21.33;;
28934;SDS011;16044;52.726;-2.108;2023-06-10T01:55:40;39.58;;;23.63;;
28934;SDS011;16044;52.726;-2.108;2023-06-10T01:58:11;32.83;;;22.08;;
28934;SDS011;16044;52.726;-2.108;2023-06-10T02:00:42;41.88;;;23.83;;
28934;SDS011;16044;52.726;-2.108;2023-06-10T02:03:13;38.65;;;22.13;;
28934;SDS011;16044;52.726;-2.108;2023-06-10T02:05:44;36.55;;;21.40;;
28934;SDS011;16044;52.726;-2.108;2023-06-10T02:08:17;38.45;;;22.33;;
28934;SDS011;16044;52.726;-2.108;2023-06-10T02:10:48;36.95;;;22.15;;
28934;SDS011;16044;52.726;-2.108;2023-06-10T02:13:18;34.25;;;20.27;;
28934;SDS011;16044;52.726;-2.108;2023-06-10T02:15:49;39.13;;;21.33;;
28934;SDS011;16044;52.726;-2.108;2023-06-10T02:18:20;32.75;;;19.13;;
28934;SDS011;16044;52.726;-2.108;2023-06-10T02:20:51;29.95;;;18.17;;
28934;SDS011;16044;52.726;-2.108;2023-06-10T02:23:24;33.30;;;19.42;;
28934;SDS011;16044;52.726;-2.108;2023-06-10T02:25:55;32.53;;;18.73;;
28934;SDS011;16044;52.726;-2.108;2023-06-10T02:28:25;34.83;;;18.55;;
28934;SDS011;16044;52.726;-2.108;2023-06-10T02:30:56;29.38;;;16.33;;
28934;SDS011;16044;52.726;-2.108;2023-06-10T02:33:27;34.13;;;17.92;;
28934;SDS011;16044;52.726;-2.108;2023-06-10T02:35:58;31.15;;;17.30;;
28934;SDS011;16044;52.726;-2.108;2023-06-10T02:38:31;33.53;;;17.58;;
28934;SDS011;16044;52.726;-2.108;2023-06-10T02:41:02;29.33;;;16.65;;
28934;SDS011;16044;52.726;-2.108;2023-06-10T02:43:33;29.25;;;16.90;;
28934;SDS011;16044;52.726;-2.108;2023-06-10T02:46:04;35.67;;;17.15;;
28934;SDS011;16044;52.726;-2.108;2023-06-10T02:48:40;32.00;;;16.63;;
28934;SDS011;16044;52.726;-2.108;2023-06-10T02:51:12;34.42;;;17.27;;
28934;SDS011;16044;52.726;-2.108;2023-06-10T02:53:45;30.13;;;15.90;;
28934;SDS011;16044;52.726;-2.108;2023-06-10T02:56:16;29.60;;;15.85;;
28934;SDS011;16044;52.726;-2.108;2023-06-10T02:58:49;27.00;;;16.65;;
28934;SDS011;16044;52.726;-2.108;2023-06-10T03:01:20;24.80;;;15.45;;
28934;SDS011;16044;52.726;-2.108;2023-06-10T03:03:50;32.80;;;16.50;;
28934;SDS011;16044;52.726;-2.108;2023-06-10T03:06:23;29.52;;;16.35;;
28934;SDS011;16044;52.726;-2.108;2023-06-10T03:08:56;28.63;;;16.17;;
28934;SDS011;16044;52.726;-2.108;2023-06-10T03:11:27;25.10;;;14.85;;
28934;SDS011;16044;52.726;-2.108;2023-06-10T03:13:58;28.52;;;16.20;;
28934;SDS011;16044;52.726;-2.108;2023-06-10T03:16:28;33.05;;;16.08;;
28934;SDS011;16044;52.726;-2.108;2023-06-10T03:18:59;32.38;;;16.27;;
28934;SDS011;16044;52.726;-2.108;2023-06-10T03:21:30;29.35;;;16.40;;
28934;SDS011;16044;52.726;-2.108;2023-06-10T03:24:04;28.40;;;15.68;;
28934;SDS011;16044;52.726;-2.108;2023-06-10T03:26:36;28.20;;;17.30;;
28934;SDS011;16044;52.726;-2.108;2023-06-10T03:29:06;26.25;;;16.83;;
28934;SDS011;16044;52.726;-2.108;2023-06-10T03:31:37;27.38;;;16.83;;
28934;SDS011;16044;52.726;-2.108;2023-06-10T03:34:08;32.40;;;17.15;;
28934;SDS011;16044;52.726;-2.108;2023-06-10T03:36:39;29.25;;;17.13;;
28934;SDS011;16044;52.726;-2.108;2023-06-10T03:39:12;31.42;;;17.83;;
28934;SDS011;16044;52.726;-2.108;2023-06-10T03:41:43;28.13;;;17.33;;
28934;SDS011;16044;52.726;-2.108;2023-06-10T03:44:14;37.60;;;20.58;;
28934;SDS011;16044;52.726;-2.108;2023-06-10T03:46:45;29.40;;;18.27;;
28934;SDS011;16044;52.726;-2.108;2023-06-10T03:49:15;33.10;;;19.63;;
28934;SDS011;16044;52.726;-2.108;2023-06-10T03:51:46;36.13;;;20.20;;
28934;SDS011;16044;52.726;-2.108;2023-06-10T03:54:19;33.95;;;19.73;;
28934;SDS011;16044;52.726;-2.108;2023-06-10T03:56:50;33.75;;;19.70;;
28934;SDS011;16044;52.726;-2.108;2023-06-10T03:59:21;35.30;;;19.80;;
28934;SDS011;16044;52.726;-2.108;2023-06-10T04:01:51;41.17;;;21.67;;
28934;SDS011;16044;52.726;-2.108;2023-06-10T04:04:22;40.05;;;21.52;;
28934;SDS011;16044;52.726;-2.108;2023-06-10T04:06:53;37.72;;;20.83;;
28934;SDS011;16044;52.726;-2.108;2023-06-10T04:09:27;33.15;;;19.67;;
28934;SDS011;16044;52.726;-2.108;2023-06-10T04:11:58;34.08;;;20.23;;
28934;SDS011;16044;52.726;-2.108;2023-06-10T04:14:29;35.90;;;20.95;;
28934;SDS011;16044;52.726;-2.108;2023-06-10T04:17:00;30.25;;;19.70;;
28934;SDS011;16044;52.726;-2.108;2023-06-10T04:19:33;32.10;;;21.23;;
28934;SDS011;16044;52.726;-2.108;2023-06-10T04:22:04;34.83;;;20.52;;
28934;SDS011;16044;52.726;-2.108;2023-06-10T04:24:37;35.53;;;19.77;;
28934;SDS011;16044;52.726;-2.108;2023-06-10T04:27:08;42.70;;;20.48;;
28934;SDS011;16044;52.726;-2.108;2023-06-10T04:29:39;32.72;;;21.48;;
28934;SDS011;16044;52.726;-2.108;2023-06-10T04:32:10;33.10;;;21.35;;
28934;SDS011;16044;52.726;-2.108;2023-06-10T04:34:40;35.30;;;21.95;;
28934;SDS011;16044;52.726;-2.108;2023-06-10T04:37:12;36.25;;;21.35;;
28934;SDS011;16044;52.726;-2.108;2023-06-10T04:39:45;36.13;;;20.08;;
28934;SDS011;16044;52.726;-2.108;2023-06-10T04:42:16;36.00;;;20.80;;
28934;SDS011;16044;52.726;-2.108;2023-06-10T04:44:47;38.47;;;21.83;;
28934;SDS011;16044;52.726;-2.108;2023-06-10T04:47:17;37.70;;;21.45;;
28934;SDS011;16044;52.726;-2.108;2023-06-10T04:49:48;42.63;;;21.25;;
28934;SDS011;16044;52.726;-2.108;2023-06-10T04:52:19;36.22;;;21.05;;
28934;SDS011;16044;52.726;-2.108;2023-06-10T04:54:53;42.80;;;20.92;;
28934;SDS011;16044;52.726;-2.108;2023-06-10T04:57:25;37.50;;;20.33;;
28934;SDS011;16044;52.726;-2.108;2023-06-10T04:59:55;44.17;;;22.52;;
28934;SDS011;16044;52.726;-2.108;2023-06-10T05:02:26;33.70;;;19.95;;
28934;SDS011;16044;52.726;-2.108;2023-06-10T05:04:57;37.80;;;21.75;;
28934;SDS011;16044;52.726;-2.108;2023-06-10T05:07:28;36.00;;;19.05;;
28934;SDS011;16044;52.726;-2.108;2023-06-10T05:10:01;37.58;;;21.05;;
28934;SDS011;16044;52.726;-2.108;2023-06-10T05:12:32;39.80;;;20.30;;
28934;SDS011;16044;52.726;-2.108;2023-06-10T05:15:05;31.80;;;19.05;;
28934;SDS011;16044;52.726;-2.108;2023-06-10T05:17:38;35.30;;;19.52;;
28934;SDS011;16044;52.726;-2.108;2023-06-10T05:20:09;34.30;;;20.58;;
28934;SDS011;16044;52.726;-2.108;2023-06-10T05:22:41;35.97;;;19.75;;
28934;SDS011;16044;52.726;-2.108;2023-06-10T05:25:16;33.05;;;18.38;;
28934;SDS011;16044;52.726;-2.108;2023-06-10T05:27:46;34.40;;;20.27;;
28934;SDS011;16044;52.726;-2.108;2023-06-10T05:30:17;33.40;;;18.95;;
28934;SDS011;16044;52.726;-2.108;2023-06-10T05:32:48;36.20;;;20.65;;
28934;SDS011;16044;52.726;-2.108;2023-06-10T05:35:19;34.80;;;20.40;;
28934;SDS011;16044;52.726;-2.108;2023-06-10T05:37:50;38.83;;;21.15;;
28934;SDS011;16044;52.726;-2.108;2023-06-10T05:40:24;45.53;;;21.75;;
28934;SDS011;16044;52.726;-2.108;2023-06-10T05:42:54;35.13;;;19.75;;
28934;SDS011;16044;52.726;-2.108;2023-06-10T05:45:26;35.35;;;19.58;;
28934;SDS011;16044;52.726;-2.108;2023-06-10T05:47:57;35.35;;;21.45;;
28934;SDS011;16044;52.726;-2.108;2023-06-10T05:50:28;35.28;;;19.08;;
28934;SDS011;16044;52.726;-2.108;2023-06-10T05:53:04;34.08;;;19.75;;
28934;SDS011;16044;52.726;-2.108;2023-06-10T05:55:45;32.13;;;18.73;;
28934;SDS011;16044;52.726;-2.108;2023-06-10T05:58:16;32.53;;;19.30;;
28934;SDS011;16044;52.726;-2.108;2023-06-10T06:00:47;34.97;;;18.95;;
28934;SDS011;16044;52.726;-2.108;2023-06-10T06:03:17;31.65;;;18.70;;
28934;SDS011;16044;52.726;-2.108;2023-06-10T06:05:48;31.35;;;17.67;;
28934;SDS011;16044;52.726;-2.108;2023-06-10T06:08:19;42.08;;;20.88;;
28934;SDS011;16044;52.726;-2.108;2023-06-10T06:10:53;39.90;;;19.88;;
28934;SDS011;16044;52.726;-2.108;2023-06-10T06:13:23;32.65;;;18.50;;
28934;SDS011;16044;52.726;-2.108;2023-06-10T06:15:54;31.95;;;18.63;;
28934;SDS011;16044;52.726;-2.108;2023-06-10T06:18:25;40.70;;;18.90;;
28934;SDS011;16044;52.726;-2.108;2023-06-10T06:20:56;30.88;;;18.17;;
28934;SDS011;16044;52.726;-2.108;2023-06-10T06:23:26;33.80;;;18.55;;
28934;SDS011;16044;52.726;-2.108;2023-06-10T06:26:00;38.33;;;18.30;;
28934;SDS011;16044;52.726;-2.108;2023-06-10T06:28:34;41.42;;;19.27;;
28934;SDS011;16044;52.726;-2.108;2023-06-10T06:31:05;39.60;;;19.73;;
28934;SDS011;16044;52.726;-2.108;2023-06-10T06:33:36;38.28;;;19.52;;
28934;SDS011;16044;52.726;-2.108;2023-06-10T06:36:07;36.45;;;18.48;;
28934;SDS011;16044;52.726;-2.108;2023-06-10T06:38:38;40.05;;;20.40;;
28934;SDS011;16044;52.726;-2.108;2023-06-10T06:41:11;38.75;;;18.50;;
28934;SDS011;16044;52.726;-2.108;2023-06-10T06:43:42;31.98;;;17.52;;
28934;SDS011;16044;52.726;-2.108;2023-06-10T06:46:12;30.42;;;17.90;;
28934;SDS011;16044;52.726;-2.108;2023-06-10T06:48:43;33.13;;;18.08;;
28934;SDS011;16044;52.726;-2.108;2023-06-10T06:51:14;30.88;;;17.70;;
28934;SDS011;16044;52.726;-2.108;2023-06-10T06:53:45;32.85;;;18.20;;
28934;SDS011;16044;52.726;-2.108;2023-06-10T06:56:20;36.42;;;17.40;;
28934;SDS011;16044;52.726;-2.108;2023-06-10T06:58:51;32.88;;;17.90;;
28934;SDS011;16044;52.726;-2.108;2023-06-10T07:01:23;31.05;;;16.75;;
28934;SDS011;16044;52.726;-2.108;2023-06-10T07:03:54;32.63;;;17.08;;
28934;SDS011;16044;52.726;-2.108;2023-06-10T07:06:25;37.35;;;16.80;;
28934;SDS011;16044;52.726;-2.108;2023-06-10T07:08:56;32.92;;;17.25;;
28934;SDS011;16044;52.726;-2.108;2023-06-10T07:11:29;24.92;;;15.02;;
28934;SDS011;16044;52.726;-2.108;2023-06-10T07:14:00;30.17;;;16.35;;
28934;SDS011;16044;52.726;-2.108;2023-06-10T07:16:31;27.02;;;15.00;;
28934;SDS011;16044;52.726;-2.108;2023-06-10T07:19:01;28.20;;;14.60;;
28934;SDS011;16044;52.726;-2.108;2023-06-10T07:21:32;28.52;;;14.80;;
28934;SDS011;16044;52.726;-2.108;2023-06-10T07:24:05;27.48;;;14.68;;
28934;SDS011;16044;52.726;-2.108;2023-06-10T07:26:39;28.05;;;14.13;;
28934;SDS011;16044;52.726;-2.108;2023-06-10T07:29:10;23.75;;;14.82;;
28934;SDS011;16044;52.726;-2.108;2023-06-10T07:31:41;30.77;;;14.90;;
28934;SDS011;16044;52.726;-2.108;2023-06-10T07:34:12;26.75;;;14.40;;
28934;SDS011;16044;52.726;-2.108;2023-06-10T07:36:42;25.95;;;13.60;;
28934;SDS011;16044;52.726;-2.108;2023-06-10T07:39:13;30.30;;;13.85;;
28934;SDS011;16044;52.726;-2.108;2023-06-10T07:41:47;28.55;;;14.02;;
28934;SDS011;16044;52.726;-2.108;2023-06-10T07:44:20;23.08;;;14.10;;
28934;SDS011;16044;52.726;-2.108;2023-06-10T07:46:51;28.35;;;14.55;;
28934;SDS011;16044;52.726;-2.108;2023-06-10T07:49:22;23.90;;;13.75;;
28934;SDS011;16044;52.726;-2.108;2023-06-10T07:51:53;24.67;;;13.48;;
28934;SDS011;16044;52.726;-2.108;2023-06-10T07:54:24;28.73;;;15.00;;
28934;SDS011;16044;52.726;-2.108;2023-06-10T07:56:58;23.08;;;13.63;;
28934;SDS011;16044;52.726;-2.108;2023-06-10T07:59:29;21.52;;;12.50;;
28934;SDS011;16044;52.726;-2.108;2023-06-10T08:02:00;24.38;;;13.18;;
28934;SDS011;16044;52.726;-2.108;2023-06-10T08:04:30;24.27;;;14.10;;
28934;SDS011;16044;52.726;-2.108;2023-06-10T08:07:03;26.33;;;14.10;;
28934;SDS011;16044;52.726;-2.108;2023-06-10T08:09:34;24.13;;;14.35;;
28934;SDS011;16044;52.726;-2.108;2023-06-10T08:12:08;29.05;;;14.07;;
28934;SDS011;16044;52.726;-2.108;2023-06-10T08:14:39;21.90;;;13.32;;
28934;SDS011;16044;52.726;-2.108;2023-06-10T08:17:10;25.00;;;13.35;;
28934;SDS011;16044;52.726;-2.108;2023-06-10T08:19:41;21.40;;;13.40;;
28934;SDS011;16044;52.726;-2.108;2023-06-10T08:22:12;24.92;;;14.00;;
28934;SDS011;16044;52.726;-2.108;2023-06-10T08:24:43;20.85;;;13.20;;
28934;SDS011;16044;52.726;-2.108;2023-06-10T08:27:17;23.17;;;13.23;;
28934;SDS011;16044;52.726;-2.108;2023-06-10T08:29:48;21.48;;;13.13;;
28934;SDS011;16044;52.726;-2.108;2023-06-10T08:32:19;26.23;;;13.98;;
28934;SDS011;16044;52.726;-2.108;2023-06-10T08:34:50;23.48;;;14.05;;
28934;SDS011;16044;52.726;-2.108;2023-06-10T08:37:20;26.13;;;13.27;;
28934;SDS011;16044;52.726;-2.108;2023-06-10T08:39:51;24.42;;;13.55;;
28934;SDS011;16044;52.726;-2.108;2023-06-10T08:42:26;23.70;;;14.07;;
28934;SDS011;16044;52.726;-2.108;2023-06-10T08:45:03;24.27;;;12.43;;
28934;SDS011;16044;52.726;-2.108;2023-06-10T08:47:38;25.00;;;13.85;;
28934;SDS011;16044;52.726;-2.108;2023-06-10T08:50:12;24.95;;;13.82;;
28934;SDS011;16044;52.726;-2.108;2023-06-10T08:52:46;22.50;;;13.88;;
28934;SDS011;16044;52.726;-2.108;2023-06-10T08:55:21;24.15;;;13.57;;
28934;SDS011;16044;52.726;-2.108;2023-06-10T08:58:01;23.13;;;12.90;;
28934;SDS011;16044;52.726;-2.108;2023-06-10T09:00:33;25.33;;;13.57;;
28934;SDS011;16044;52.726;-2.108;2023-06-10T09:03:05;24.23;;;13.93;;
28934;SDS011;16044;52.726;-2.108;2023-06-10T09:05:36;23.27;;;12.57;;
28934;SDS011;16044;52.726;-2.108;2023-06-10T09:08:08;23.85;;;13.27;;
28934;SDS011;16044;52.726;-2.108;2023-06-10T09:10:39;26.17;;;14.30;;
28934;SDS011;16044;52.726;-2.108;2023-06-10T09:13:13;21.67;;;12.85;;
28934;SDS011;16044;52.726;-2.108;2023-06-10T09:15:45;22.90;;;12.27;;
28934;SDS011;16044;52.726;-2.108;2023-06-10T09:18:18;21.40;;;11.85;;
28934;SDS011;16044;52.726;-2.108;2023-06-10T09:20:48;27.63;;;14.07;;
28934;SDS011;16044;52.726;-2.108;2023-06-10T09:23:19;24.00;;;12.73;;
28934;SDS011;16044;52.726;-2.108;2023-06-10T09:25:55;25.77;;;13.43;;
28934;SDS011;16044;52.726;-2.108;2023-06-10T09:28:29;22.45;;;12.85;;
28934;SDS011;16044;52.726;-2.108;2023-06-10T09:31:03;28.90;;;14.15;;
28934;SDS011;16044;52.726;-2.108;2023-06-10T09:33:37;25.15;;;12.60;;
28934;SDS011;16044;52.726;-2.108;2023-06-10T09:36:08;23.70;;;14.07;;
28934;SDS011;16044;52.726;-2.108;2023-06-10T09:38:39;28.52;;;14.55;;
28934;SDS011;16044;52.726;-2.108;2023-06-10T09:41:10;27.52;;;14.40;;
28934;SDS011;16044;52.726;-2.108;2023-06-10T09:43:45;26.08;;;12.85;;
28934;SDS011;16044;52.726;-2.108;2023-06-10T09:46:16;26.60;;;12.98;;
28934;SDS011;16044;52.726;-2.108;2023-06-10T09:48:47;27.17;;;14.68;;
28934;SDS011;16044;52.726;-2.108;2023-06-10T09:51:18;25.75;;;13.68;;
28934;SDS011;16044;52.726;-2.108;2023-06-10T09:53:50;27.13;;;13.02;;
28934;SDS011;16044;52.726;-2.108;2023-06-10T09:56:22;26.42;;;12.63;;
28934;SDS011;16044;52.726;-2.108;2023-06-10T09:59:06;25.73;;;12.93;;
28934;SDS011;16044;52.726;-2.108;2023-06-10T10:01:37;27.77;;;13.32;;
28934;SDS011;16044;52.726;-2.108;2023-06-10T10:04:08;31.52;;;13.02;;
28934;SDS011;16044;52.726;-2.108;2023-06-10T10:06:39;25.27;;;13.02;;
28934;SDS011;16044;52.726;-2.108;2023-06-10T10:09:10;32.63;;;13.65;;
28934;SDS011;16044;52.726;-2.108;2023-06-10T10:11:41;23.42;;;13.68;;
28934;SDS011;16044;52.726;-2.108;2023-06-10T10:14:16;25.98;;;13.55;;
28934;SDS011;16044;52.726;-2.108;2023-06-10T10:16:49;25.40;;;12.73;;
28934;SDS011;16044;52.726;-2.108;2023-06-10T10:19:23;27.30;;;13.00;;
28934;SDS011;16044;52.726;-2.108;2023-06-10T10:22:00;23.67;;;12.50;;
28934;SDS011;16044;52.726;-2.108;2023-06-10T10:24:37;21.20;;;13.13;;
28934;SDS011;16044;52.726;-2.108;2023-06-10T10:27:11;24.63;;;12.88;;
28934;SDS011;16044;52.726;-2.108;2023-06-10T10:29:51;24.17;;;12.95;;
28934;SDS011;16044;52.726;-2.108;2023-06-10T10:32:24;24.98;;;12.93;;
28934;SDS011;16044;52.726;-2.108;2023-06-10T10:35:03;26.05;;;12.57;;
28934;SDS011;16044;52.726;-2.108;2023-06-10T10:37:39;23.10;;;12.05;;
28934;SDS011;16044;52.726;-2.108;2023-06-10T10:40:10;25.55;;;11.88;;
28934;SDS011;16044;52.726;-2.108;2023-06-10T10:42:42;20.13;;;11.73;;
28934;SDS011;16044;52.726;-2.108;2023-06-10T10:45:16;24.85;;;12.52;;
28934;SDS011;16044;52.726;-2.108;2023-06-10T10:47:48;30.55;;;12.88;;
28934;SDS011;16044;52.726;-2.108;2023-06-10T10:50:24;20.83;;;11.77;;
28934;SDS011;16044;52.726;-2.108;2023-06-10T10:53:01;23.23;;;12.52;;
28934;SDS011;16044;52.726;-2.108;2023-06-10T10:55:34;22.88;;;11.75;;
28934;SDS011;16044;52.726;-2.108;2023-06-10T10:58:05;23.88;;;12.15;;
28934;SDS011;16044;52.726;-2.108;2023-06-10T11:00:43;30.50;;;12.18;;
28934;SDS011;16044;52.726;-2.108;2023-06-10T11:03:15;23.08;;;12.52;;
28934;SDS011;16044;52.726;-2.108;2023-06-10T11:05:47;24.15;;;11.52;;
28934;SDS011;16044;52.726;-2.108;2023-06-10T11:11:17;20.88;;;11.40;;
28934;SDS011;16044;52.726;-2.108;2023-06-10T11:13:59;23.83;;;11.73;;
28934;SDS011;16044;52.726;-2.108;2023-06-10T11:16:41;24.02;;;11.48;;
28934;SDS011;16044;52.726;-2.108;2023-06-10T11:22:05;24.23;;;12.52;;
28934;SDS011;16044;52.726;-2.108;2023-06-10T11:24:37;25.15;;;11.88;;
28934;SDS011;16044;52.726;-2.108;2023-06-10T11:27:14;23.50;;;11.38;;
28934;SDS011;16044;52.726;-2.108;2023-06-10T11:30:00;23.48;;;12.15;;
28934;SDS011;16044;52.726;-2.108;2023-06-10T11:32:52;23.45;;;11.95;;
28934;SDS011;16044;52.726;-2.108;2023-06-10T11:35:27;35.00;;;13.07;;
28934;SDS011;16044;52.726;-2.108;2023-06-10T11:37:58;23.75;;;11.65;;
28934;SDS011;16044;52.726;-2.108;2023-06-10T11:40:29;27.52;;;12.07;;
28934;SDS011;16044;52.726;-2.108;2023-06-10T11:43:00;22.45;;;10.50;;
28934;SDS011;16044;52.726;-2.108;2023-06-10T11:45:33;25.02;;;10.75;;
28934;SDS011;16044;52.726;-2.108;2023-06-10T11:48:07;23.42;;;10.35;;
28934;SDS011;16044;52.726;-2.108;2023-06-10T11:50:39;23.80;;;10.73;;
28934;SDS011;16044;52.726;-2.108;2023-06-10T11:53:10;19.52;;;9.73;;
28934;SDS011;16044;52.726;-2.108;2023-06-10T11:55:41;23.95;;;10.38;;
28934;SDS011;16044;52.726;-2.108;2023-06-10T11:58:14;18.23;;;10.60;;
28934;SDS011;16044;52.726;-2.108;2023-06-10T12:00:45;18.20;;;10.00;;
28934;SDS011;16044;52.726;-2.108;2023-06-10T12:03:20;23.65;;;11.23;;
28934;SDS011;16044;52.726;-2.108;2023-06-10T12:05:55;22.20;;;10.15;;
28934;SDS011;16044;52.726;-2.108;2023-06-10T12:08:27;21.63;;;10.00;;
28934;SDS011;16044;52.726;-2.108;2023-06-10T12:13:32;22.33;;;9.82;;
28934;SDS011;16044;52.726;-2.108;2023-06-10T12:16:06;19.45;;;9.80;;
28934;SDS011;16044;52.726;-2.108;2023-06-10T12:21:17;18.45;;;9.25;;
28934;SDS011;16044;52.726;-2.108;2023-06-10T12:24:02;22.50;;;10.00;;
28934;SDS011;16044;52.726;-2.108;2023-06-10T12:26:44;24.77;;;9.57;;
28934;SDS011;16044;52.726;-2.108;2023-06-10T12:29:18;18.90;;;8.52;;
28934;SDS011;16044;52.726;-2.108;2023-06-10T12:31:58;21.67;;;8.98;;
28934;SDS011;16044;52.726;-2.108;2023-06-10T12:34:38;19.92;;;9.13;;
28934;SDS011;16044;52.726;-2.108;2023-06-10T12:37:10;16.67;;;8.37;;
28934;SDS011;16044;52.726;-2.108;2023-06-10T12:39:43;15.50;;;8.02;;
28934;SDS011;16044;52.726;-2.108;2023-06-10T12:42:23;17.85;;;8.07;;
28934;SDS011;16044;52.726;-2.108;2023-06-10T12:44:55;19.25;;;8.52;;
28934;SDS011;16044;52.726;-2.108;2023-06-10T12:47:30;15.13;;;8.25;;
28934;SDS011;16044;52.726;-2.108;2023-06-10T12:50:06;16.48;;;7.35;;
28934;SDS011;16044;52.726;-2.108;2023-06-10T12:52:39;17.77;;;7.60;;
28934;SDS011;16044;52.726;-2.108;2023-06-10T12:55:10;18.70;;;7.43;;
28934;SDS011;16044;52.726;-2.108;2023-06-10T12:57:48;16.05;;;7.13;;
28934;SDS011;16044;52.726;-2.108;2023-06-10T13:00:19;20.85;;;7.35;;
28934;SDS011;16044;52.726;-2.108;2023-06-10T13:02:52;18.75;;;8.23;;
28934;SDS011;16044;52.726;-2.108;2023-06-10T13:05:25;15.50;;;7.38;;
28934;SDS011;16044;52.726;-2.108;2023-06-10T13:07:57;17.52;;;7.47;;
28934;SDS011;16044;52.726;-2.108;2023-06-10T13:10:28;16.45;;;6.85;;
28934;SDS011;16044;52.726;-2.108;2023-06-10T13:12:59;15.07;;;7.43;;
28934;SDS011;16044;52.726;-2.108;2023-06-10T13:15:32;15.23;;;6.93;;
28934;SDS011;16044;52.726;-2.108;2023-06-10T13:18:09;15.07;;;7.00;;
28934;SDS011;16044;52.726;-2.108;2023-06-10T13:20:42;18.52;;;7.38;;
28934;SDS011;16044;52.726;-2.108;2023-06-10T13:23:13;15.52;;;6.70;;
28934;SDS011;16044;52.726;-2.108;2023-06-10T13:25:44;13.43;;;6.95;;
28934;SDS011;16044;52.726;-2.108;2023-06-10T13:28:15;18.42;;;7.25;;
28934;SDS011;16044;52.726;-2.108;2023-06-10T13:30:45;16.35;;;7.32;;
28934;SDS011;16044;52.726;-2.108;2023-06-10T13:33:16;14.32;;;6.70;;
28934;SDS011;16044;52.726;-2.108;2023-06-10T13:35:50;15.43;;;7.10;;
28934;SDS011;16044;52.726;-2.108;2023-06-10T13:38:23;16.15;;;7.43;;
28934;SDS011;16044;52.726;-2.108;2023-06-10T13:40:53;21.83;;;7.82;;
28934;SDS011;16044;52.726;-2.108;2023-06-10T13:43:27;14.13;;;7.47;;
28934;SDS011;16044;52.726;-2.108;2023-06-10T13:45:57;17.38;;;7.88;;
28934;SDS011;16044;52.726;-2.108;2023-06-10T13:48:28;19.45;;;7.82;;
28934;SDS011;16044;52.726;-2.108;2023-06-10T13:51:02;18.33;;;7.43;;
28934;SDS011;16044;52.726;-2.108;2023-06-10T13:53:33;20.43;;;7.83;;
28934;SDS011;16044;52.726;-2.108;2023-06-10T13:56:04;14.07;;;6.97;;
28934;SDS011;16044;52.726;-2.108;2023-06-10T13:58:35;12.50;;;7.20;;
28934;SDS011;16044;52.726;-2.108;2023-06-10T14:01:05;15.73;;;7.18;;
28934;SDS011;16044;52.726;-2.108;2023-06-10T14:03:36;15.18;;;7.68;;
28934;SDS011;16044;52.726;-2.108;2023-06-10T14:06:10;14.27;;;7.22;;
28934;SDS011;16044;52.726;-2.108;2023-06-10T14:08:45;15.65;;;7.53;;
28934;SDS011;16044;52.726;-2.108;2023-06-10T14:11:15;15.20;;;8.13;;
28934;SDS011;16044;52.726;-2.108;2023-06-10T14:13:46;13.45;;;7.50;;
28934;SDS011;16044;52.726;-2.108;2023-06-10T14:16:17;14.35;;;7.45;;
28934;SDS011;16044;52.726;-2.108;2023-06-10T14:18:48;20.25;;;8.13;;
28934;SDS011;16044;52.726;-2.108;2023-06-10T14:21:22;15.15;;;7.85;;
28934;SDS011;16044;52.726;-2.108;2023-06-10T14:23:52;16.05;;;7.13;;
28934;SDS011;16044;52.726;-2.108;2023-06-10T14:26:23;14.25;;;6.97;;
28934;SDS011;16044;52.726;-2.108;2023-06-10T14:28:54;13.82;;;7.18;;
28934;SDS011;16044;52.726;-2.108;2023-06-10T14:31:25;11.23;;;6.55;;
28934;SDS011;16044;52.726;-2.108;2023-06-10T14:33:55;13.02;;;7.43;;
28934;SDS011;16044;52.726;-2.108;2023-06-10T14:36:29;16.48;;;7.53;;
28934;SDS011;16044;52.726;-2.108;2023-06-10T14:39:00;14.05;;;7.10;;
28934;SDS011;16044;52.726;-2.108;2023-06-10T14:41:31;11.55;;;7.00;;
28934;SDS011;16044;52.726;-2.108;2023-06-10T14:44:01;11.85;;;6.93;;
28934;SDS011;16044;52.726;-2.108;2023-06-10T14:46:33;13.75;;;7.22;;
28934;SDS011;16044;52.726;-2.108;2023-06-10T14:49:03;10.52;;;6.70;;
28934;SDS011;16044;52.726;-2.108;2023-06-10T14:51:37;15.95;;;7.18;;
28934;SDS011;16044;52.726;-2.108;2023-06-10T14:54:07;10.18;;;5.85;;